Pagrindinis puslapis
METAR-TAF:

METAR-TAF

Oro uostai :

Šiovdė, Švedija

platuma: 58-27N, ilguma: 013-58E, Aukštis: 98 m

Dabartinis oras

Ataskaita buvo paskelbta 23 minutes, ne 10:50 UTC
Vėjas 10 kt iš Vakarų, svyruoja nuo Vakarų/Pietvakarių ir Vakarų/Šiaurės Vakarų
Temperatūra 8°C
Drėgmė 49%
Slėgis 989 hPa
Matomumas 10 km arba daugiau

METAR: ESGR 221050Z AUTO 26010KT 240V300 9999 NCD 08/M02 Q0989

Laikas: 13:13 (11:13 UTC)


TAF: trūkstamas

Orai ataskaitas ir orų prognozės (METAR, TAF).

turimą stotys yra geltonos ir raudonos taškus žemėlapyje.

Perkelti pele per norėdami pamatyti stoties vardą.

Tada spustelėkite, norėdami matyti oro stebėjimo ir prognozės.

Norėdami pakeisti žemėlapį: spustelėkite ant žalios mygtukų su juodo kryžiaus žemyn,; žalią mygtuką su brūkšneliu, jei norite nutolinti; arba žalių rodyklių gretimoms žemėlapius.


METAR-TAF: